Notice: Undefined index: language in /home/u908952976/domains/airgaviota-va.com/public_html/vam/index.php on line 25
AirGaviota-VA

... VIRTUAL FLIGHT...OUR PASSION



 FLIGHT DETAILS
Pilot: GVT462 Peter Voksan Aircraft: AN24_FELIS AIRGAVIOTA Distance: 92NM
Departure MUCL Arrival MUNG Duration 00:25
Validation Validated Type Charter Tail Number GV-AAN
ZFW 16939 Block Fuel/Initial FOB 523/0 Flight Fuel 370
Passengers 10 Cargo 0 Alternate MUSN
Departure Time 1600 Cruise Speed Flight Level 2500
Flight Type VFR Aircraft Type AN24 Weight Unit Kg
Date 21-04-2020 Pilot Comments Network IVAO
Crashed No Validator Comments Flight Rating -150

 ROUTE
ROUTE CAYO TABLONES
REMARKS
 FLIGHT FAILURES
Crashed OK Beacon off & Engine Running OK KIAS Above 250 below 10000 FT OK
Lights OFF below 10000 FT OK Lights ON above 10000 FT OK Stall OK
Overspeed OK Flight paused OK Refueling OK
Slew detected OK Taxi & Taxi lights off Fail Take off & lights off OK
Landing & lights off OK Landed in not planned airport OK Taxi Speed Fail
Wrong altimeter in Take off OK Wrong altimeter in Landing OK
 LANDING ANALYSIS
Landing wind 125º/11 kt Landing heading 227
Landing VS: -238.37 ft/min Landing IAS: 87.29 kt
Landing Force G 1 G Landing Bank -1.3
Landing Pitch 4.2 Landing Flaps 38
Navigation Lights ON Landing Lights ON
Beacon Lights ON Strobe Lights OFF
 FLIGHT MAP
 ALTITUDE CHART
 FLIGHT FINANCIAL REPORT
 MAIN EVENTS
DATE EVENTIASALTITUDE
2020-04-21 17:50:37 SIM ACARS version 1.4.1020
2020-04-21 17:50:37 BOARDING020
2020-04-21 17:53:36 STARTING ENGINE 3 820
2020-04-21 17:53:39 STOPPING ENGINE 3 820
2020-04-21 17:53:58 STARTING ENGINE 3 920
2020-04-21 17:55:08 STARTING ENGINE 1 820
2020-04-21 17:55:45 STARTING ENGINE 2 1020
2020-04-21 17:56:18 STOPPING ENGINE 3 820
2020-04-21 17:58:49 FLAPS EXTENSION 1 % 1020
2020-04-21 17:58:49 FLAPS EXTENSION 3 % 1020
2020-04-21 17:58:49 FLAPS EXTENSION 4 % 1020
2020-04-21 17:58:49 FLAPS EXTENSION 6 % 1020
2020-04-21 17:58:50 FLAPS EXTENSION 8 % 1020
2020-04-21 17:58:50 FLAPS EXTENSION 9 % 1020
2020-04-21 17:58:50 FLAPS EXTENSION 12 % 1020
2020-04-21 17:58:50 FLAPS EXTENSION 13 % 1020
2020-04-21 17:58:50 FLAPS EXTENSION 14 % 1020
2020-04-21 17:58:51 FLAPS EXTENSION 15 % 1020
2020-04-21 17:58:51 FLAPS EXTENSION 16 % 1020
2020-04-21 17:58:51 FLAPS EXTENSION 17 % 1020
2020-04-21 17:58:51 FLAPS EXTENSION 19 % 1020
2020-04-21 17:58:51 FLAPS EXTENSION 20 % 1020
2020-04-21 17:58:51 FLAPS EXTENSION 21 % 1020
2020-04-21 17:58:51 FLAPS EXTENSION 22 % 1020
2020-04-21 17:58:52 FLAPS EXTENSION 23 % 1020
2020-04-21 17:58:52 FLAPS EXTENSION 24 % 1020
2020-04-21 17:58:52 FLAPS EXTENSION 25 % 1020
2020-04-21 17:58:52 FLAPS EXTENSION 26 % 1020
2020-04-21 17:58:52 FLAPS EXTENSION 28 % 1020
2020-04-21 17:58:52 FLAPS EXTENSION 29 % 1020
2020-04-21 17:58:53 FLAPS EXTENSION 30 % 1020
2020-04-21 17:58:53 FLAPS EXTENSION 32 % 1020
2020-04-21 17:58:53 FLAPS EXTENSION 33 % 1020
2020-04-21 17:58:53 FLAPS EXTENSION 34 % 920
2020-04-21 17:58:53 FLAPS EXTENSION 35 % 920
2020-04-21 17:58:53 FLAPS EXTENSION 35 % 920
2020-04-21 17:59:49 TAXI TO THE RWY 2420
2020-04-21 17:59:49 TAXING WITH TAXI LIGHTS OFF2420
2020-04-21 18:04:54 ROLLING FOR TAKE OFF3120
2020-04-21 18:05:20 GEAR UP112110
2020-04-21 18:05:58 FLAPS EXTENSION 34 % 105958
2020-04-21 18:05:58 FLAPS EXTENSION 33 % 105966
2020-04-21 18:05:58 FLAPS EXTENSION 31 % 105972
2020-04-21 18:05:58 FLAPS EXTENSION 30 % 105976
2020-04-21 18:05:59 FLAPS EXTENSION 28 % 105981
2020-04-21 18:05:59 FLAPS EXTENSION 27 % 104987
2020-04-21 18:05:59 FLAPS EXTENSION 26 % 104992
2020-04-21 18:05:59 FLAPS EXTENSION 25 % 103996
2020-04-21 18:06:19 FLAPS EXTENSION 23 % 1291221
2020-04-21 18:06:20 FLAPS EXTENSION 20 % 1301219
2020-04-21 18:06:20 FLAPS EXTENSION 18 % 1301218
2020-04-21 18:06:20 TAKE OFF1311216
2020-04-21 18:06:20 FLAPS EXTENSION 16 % 1311216
2020-04-21 18:06:20 FLAPS EXTENSION 15 % 1311214
2020-04-21 18:06:20 FLAPS EXTENSION 13 % 1321213
2020-04-21 18:06:20 FLAPS EXTENSION 12 % 1321212
2020-04-21 18:06:21 FLAPS EXTENSION 9 % 1341208
2020-04-21 18:06:21 FLAPS EXTENSION 7 % 1341207
2020-04-21 18:06:21 FLAPS EXTENSION 6 % 1351205
2020-04-21 18:06:22 FLAPS EXTENSION 4 % 1351203
2020-04-21 18:06:22 FLAPS EXTENSION 3 % 1361201
2020-04-21 18:06:22 FLAPS EXTENSION 2 % 1371199
2020-04-21 18:06:22 FLAPS EXTENSION 0 % 1381197
2020-04-21 18:07:20 CRUISE1891415
2020-04-21 18:09:30 DESCEND2151257
2020-04-21 18:11:50 CRUISE219722
2020-04-21 18:16:30 CLIMBING210850
2020-04-21 18:18:00 CRUISE218962
2020-04-21 18:21:10 CLIMBING217967
2020-04-21 18:21:40 CRUISE2151001
2020-04-21 18:22:20 DESCEND215802
2020-04-21 18:24:10 CLIMBING1891035
2020-04-21 18:24:40 CRUISE1841086
2020-04-21 18:26:40 DESCEND160973
2020-04-21 18:27:15 FLAPS EXTENSION 1 % 155837
2020-04-21 18:27:15 FLAPS EXTENSION 3 % 155836
2020-04-21 18:27:15 FLAPS EXTENSION 4 % 155836
2020-04-21 18:27:16 FLAPS EXTENSION 8 % 155837
2020-04-21 18:27:16 FLAPS EXTENSION 9 % 155836
2020-04-21 18:27:16 FLAPS EXTENSION 11 % 154837
2020-04-21 18:28:20 CRUISE137798
2020-04-21 18:30:22 GEAR DOWN115893
2020-04-21 18:30:23 FLAPS EXTENSION 12 % 115893
2020-04-21 18:30:23 FLAPS EXTENSION 14 % 115893
2020-04-21 18:30:23 FLAPS EXTENSION 15 % 114893
2020-04-21 18:30:23 FLAPS EXTENSION 17 % 116894
2020-04-21 18:30:23 FLAPS EXTENSION 19 % 116894
2020-04-21 18:30:24 FLAPS EXTENSION 22 % 116894
2020-04-21 18:30:24 FLAPS EXTENSION 23 % 117894
2020-04-21 18:30:24 FLAPS EXTENSION 24 % 117895
2020-04-21 18:30:24 FLAPS EXTENSION 26 % 117895
2020-04-21 18:30:25 FLAPS EXTENSION 27 % 116895
2020-04-21 18:30:25 FLAPS EXTENSION 29 % 116896
2020-04-21 18:30:25 FLAPS EXTENSION 30 % 116896
2020-04-21 18:30:25 FLAPS EXTENSION 31 % 116897
2020-04-21 18:30:26 FLAPS EXTENSION 34 % 117899
2020-04-21 18:30:26 FLAPS EXTENSION 35 % 117900
2020-04-21 18:30:26 FLAPS EXTENSION 36 % 117901
2020-04-21 18:30:26 FLAPS EXTENSION 37 % 117902
2020-04-21 18:30:27 FLAPS EXTENSION 39 % 116903
2020-04-21 18:30:27 FLAPS EXTENSION 40 % 116904
2020-04-21 18:30:27 FLAPS EXTENSION 41 % 116905
2020-04-21 18:30:27 FLAPS EXTENSION 42 % 116906
2020-04-21 18:30:27 FLAPS EXTENSION 43 % 115908
2020-04-21 18:30:28 FLAPS EXTENSION 44 % 115909
2020-04-21 18:30:28 FLAPS EXTENSION 45 % 114910
2020-04-21 18:30:28 FLAPS EXTENSION 46 % 114912
2020-04-21 18:30:29 FLAPS EXTENSION 49 % 114916
2020-04-21 18:30:29 FLAPS EXTENSION 50 % 114918
2020-04-21 18:30:29 FLAPS EXTENSION 51 % 113919
2020-04-21 18:30:29 FLAPS EXTENSION 52 % 113922
2020-04-21 18:30:29 FLAPS EXTENSION 53 % 113925
2020-04-21 18:30:30 FLAPS EXTENSION 54 % 113926
2020-04-21 18:30:30 FLAPS EXTENSION 55 % 112928
2020-04-21 18:30:30 FLAPS EXTENSION 56 % 114930
2020-04-21 18:30:30 CLIMBING114930
2020-04-21 18:30:30 FLAPS EXTENSION 56 % 114933
2020-04-21 18:30:32 FLAPS EXTENSION 57 % 105951
2020-04-21 18:30:33 FLAPS EXTENSION 58 % 105952
2020-04-21 18:30:33 FLAPS EXTENSION 59 % 105954
2020-04-21 18:30:33 FLAPS EXTENSION 60 % 105956
2020-04-21 18:30:33 FLAPS EXTENSION 61 % 105957
2020-04-21 18:30:33 FLAPS EXTENSION 62 % 104959
2020-04-21 18:30:34 FLAPS EXTENSION 63 % 104960
2020-04-21 18:30:34 FLAPS EXTENSION 64 % 104958
2020-04-21 18:30:34 FLAPS EXTENSION 65 % 105960
2020-04-21 18:30:34 FLAPS EXTENSION 66 % 106965
2020-04-21 18:30:35 FLAPS EXTENSION 68 % 106968
2020-04-21 18:30:35 FLAPS EXTENSION 69 % 105969
2020-04-21 18:30:35 FLAPS EXTENSION 70 % 105970
2020-04-21 18:30:35 FLAPS EXTENSION 70 % 105971
2020-04-21 18:30:35 FLAPS EXTENSION 71 % 104974
2020-04-21 18:30:36 FLAPS EXTENSION 73 % 104976
2020-04-21 18:30:36 FLAPS EXTENSION 74 % 104977
2020-04-21 18:30:36 FLAPS EXTENSION 75 % 104979
2020-04-21 18:30:36 FLAPS EXTENSION 76 % 104981
2020-04-21 18:30:36 FLAPS EXTENSION 77 % 103982
2020-04-21 18:30:37 FLAPS EXTENSION 78 % 103983
2020-04-21 18:30:37 FLAPS EXTENSION 79 % 103987
2020-04-21 18:30:37 FLAPS EXTENSION 80 % 103989
2020-04-21 18:30:43 FLAPS EXTENSION 81 % 1011039
2020-04-21 18:30:43 FLAPS EXTENSION 82 % 1001041
2020-04-21 18:30:43 FLAPS EXTENSION 83 % 1001042
2020-04-21 18:30:43 FLAPS EXTENSION 84 % 1001045
2020-04-21 18:30:44 FLAPS EXTENSION 87 % 1001048
2020-04-21 18:30:44 FLAPS EXTENSION 88 % 981047
2020-04-21 18:30:44 FLAPS EXTENSION 89 % 981049
2020-04-21 18:30:44 FLAPS EXTENSION 90 % 981050
2020-04-21 18:30:44 FLAPS EXTENSION 91 % 971050
2020-04-21 18:30:45 FLAPS EXTENSION 93 % 971058
2020-04-21 18:30:45 FLAPS EXTENSION 94 % 961059
2020-04-21 18:30:45 FLAPS EXTENSION 95 % 961062
2020-04-21 18:30:45 FLAPS EXTENSION 96 % 961063
2020-04-21 18:30:45 FLAPS EXTENSION 97 % 951065
2020-04-21 18:30:45 FLAPS EXTENSION 98 % 951067
2020-04-21 18:30:46 FLAPS EXTENSION 99 % 951069
2020-04-21 18:30:46 FLAPS EXTENSION 100 % 951071
2020-04-21 18:30:46 FLAPS EXTENSION 100 % 951072
2020-04-21 18:31:30 DESCEND1031690
2020-04-21 18:32:25 LANDING8792
2020-04-21 18:32:54 TAXI TO THE GATE2090
2020-04-21 18:32:55 FLAPS EXTENSION 100 % 2090
2020-04-21 18:32:56 FLAPS EXTENSION 98 % 2090
2020-04-21 18:32:56 FLAPS EXTENSION 97 % 2090
2020-04-21 18:32:56 FLAPS EXTENSION 95 % 2090
2020-04-21 18:32:56 FLAPS EXTENSION 94 % 2090
2020-04-21 18:32:56 FLAPS EXTENSION 93 % 2090
2020-04-21 18:32:56 FLAPS EXTENSION 91 % 2090
2020-04-21 18:32:57 FLAPS EXTENSION 90 % 2090
2020-04-21 18:32:57 FLAPS EXTENSION 89 % 1990
2020-04-21 18:32:57 FLAPS EXTENSION 88 % 1990
2020-04-21 18:32:57 FLAPS EXTENSION 85 % 1990
2020-04-21 18:32:58 FLAPS EXTENSION 84 % 1990
2020-04-21 18:32:58 FLAPS EXTENSION 83 % 1990
2020-04-21 18:32:58 FLAPS EXTENSION 82 % 1990
2020-04-21 18:32:58 FLAPS EXTENSION 80 % 1990
2020-04-21 18:32:58 FLAPS EXTENSION 79 % 1990
2020-04-21 18:32:59 FLAPS EXTENSION 78 % 1990
2020-04-21 18:32:59 FLAPS EXTENSION 77 % 1990
2020-04-21 18:32:59 FLAPS EXTENSION 76 % 1990
2020-04-21 18:32:59 FLAPS EXTENSION 75 % 1990
2020-04-21 18:32:59 FLAPS EXTENSION 74 % 1990
2020-04-21 18:33:00 FLAPS EXTENSION 72 % 1990
2020-04-21 18:33:00 FLAPS EXTENSION 71 % 1990
2020-04-21 18:33:00 FLAPS EXTENSION 70 % 1990
2020-04-21 18:33:00 FLAPS EXTENSION 69 % 1990
2020-04-21 18:33:00 FLAPS EXTENSION 68 % 1990
2020-04-21 18:33:01 FLAPS EXTENSION 67 % 1990
2020-04-21 18:33:01 FLAPS EXTENSION 66 % 1990
2020-04-21 18:33:01 FLAPS EXTENSION 65 % 1990
2020-04-21 18:33:01 FLAPS EXTENSION 64 % 1890
2020-04-21 18:33:01 FLAPS EXTENSION 63 % 1890
2020-04-21 18:33:02 FLAPS EXTENSION 61 % 1890
2020-04-21 18:33:02 FLAPS EXTENSION 60 % 1890
2020-04-21 18:33:02 FLAPS EXTENSION 59 % 1890
2020-04-21 18:33:02 FLAPS EXTENSION 58 % 1890
2020-04-21 18:33:02 FLAPS EXTENSION 57 % 1690
2020-04-21 18:33:03 FLAPS EXTENSION 56 % 1690
2020-04-21 18:33:03 FLAPS EXTENSION 55 % 1690
2020-04-21 18:33:03 FLAPS EXTENSION 54 % 1690
2020-04-21 18:33:03 FLAPS EXTENSION 53 % 1690
2020-04-21 18:33:03 FLAPS EXTENSION 52 % 1690
2020-04-21 18:33:04 FLAPS EXTENSION 51 % 1690
2020-04-21 18:33:04 FLAPS EXTENSION 51 % 1590
2020-04-21 18:33:04 FLAPS EXTENSION 50 % 1590
2020-04-21 18:33:04 FLAPS EXTENSION 49 % 1590
2020-04-21 18:33:04 FLAPS EXTENSION 48 % 1590
2020-04-21 18:33:05 FLAPS EXTENSION 47 % 1590
2020-04-21 18:33:05 FLAPS EXTENSION 46 % 1590
2020-04-21 18:33:05 FLAPS EXTENSION 45 % 1590
2020-04-21 18:33:05 FLAPS EXTENSION 44 % 1590
2020-04-21 18:33:05 FLAPS EXTENSION 43 % 1590
2020-04-21 18:33:06 FLAPS EXTENSION 42 % 1590
2020-04-21 18:33:06 FLAPS EXTENSION 42 % 1590
2020-04-21 18:33:06 FLAPS EXTENSION 41 % 1590
2020-04-21 18:33:06 FLAPS EXTENSION 40 % 1590
2020-04-21 18:33:06 FLAPS EXTENSION 39 % 1590
2020-04-21 18:33:07 FLAPS EXTENSION 38 % 1590
2020-04-21 18:33:07 FLAPS EXTENSION 37 % 1590
2020-04-21 18:33:07 FLAPS EXTENSION 37 % 1490
2020-04-21 18:33:07 FLAPS EXTENSION 36 % 1490
2020-04-21 18:33:07 FLAPS EXTENSION 35 % 1490
2020-04-21 18:33:08 FLAPS EXTENSION 34 % 1490
2020-04-21 18:33:08 FLAPS EXTENSION 32 % 1490
2020-04-21 18:33:08 FLAPS EXTENSION 32 % 1490
2020-04-21 18:33:08 FLAPS EXTENSION 31 % 1490
2020-04-21 18:33:09 FLAPS EXTENSION 30 % 1490
2020-04-21 18:33:09 FLAPS EXTENSION 29 % 1490
2020-04-21 18:33:09 FLAPS EXTENSION 29 % 1490
2020-04-21 18:33:09 FLAPS EXTENSION 28 % 1390
2020-04-21 18:33:09 FLAPS EXTENSION 27 % 1390
2020-04-21 18:33:10 FLAPS EXTENSION 26 % 1390
2020-04-21 18:33:10 FLAPS EXTENSION 24 % 1390
2020-04-21 18:33:10 FLAPS EXTENSION 23 % 1390
2020-04-21 18:33:10 FLAPS EXTENSION 22 % 1390
2020-04-21 18:33:11 FLAPS EXTENSION 22 % 1390
2020-04-21 18:33:11 FLAPS EXTENSION 21 % 1390
2020-04-21 18:33:11 FLAPS EXTENSION 20 % 1390
2020-04-21 18:33:11 FLAPS EXTENSION 19 % 1390
2020-04-21 18:33:11 FLAPS EXTENSION 18 % 1390
2020-04-21 18:33:12 FLAPS EXTENSION 18 % 1390
2020-04-21 18:33:12 FLAPS EXTENSION 16 % 1390
2020-04-21 18:33:12 FLAPS EXTENSION 15 % 1390
2020-04-21 18:33:13 FLAPS EXTENSION 14 % 1390
2020-04-21 18:33:13 FLAPS EXTENSION 12 % 1286
2020-04-21 18:33:13 FLAPS EXTENSION 12 % 1286
2020-04-21 18:33:13 FLAPS EXTENSION 11 % 1286
2020-04-21 18:33:14 FLAPS EXTENSION 9 % 1286
2020-04-21 18:33:14 FLAPS EXTENSION 9 % 1290
2020-04-21 18:33:14 FLAPS EXTENSION 8 % 1290
2020-04-21 18:33:14 FLAPS EXTENSION 7 % 1290
2020-04-21 18:33:15 FLAPS EXTENSION 3 % 1190
2020-04-21 18:33:15 FLAPS EXTENSION 3 % 1190
2020-04-21 18:33:16 FLAPS EXTENSION 2 % 1190
2020-04-21 18:33:16 FLAPS EXTENSION 1 % 1190
2020-04-21 18:33:16 FLAPS EXTENSION 0 % 1190
2020-04-21 18:33:16 FLAPS EXTENSION 0 % 1190
2020-04-21 18:33:55 TAXI SPEED ABOVE 25 KTS2990
2020-04-21 18:35:42 STOPPING ENGINE 2 390
2020-04-21 18:35:47 STOPPING ENGINE 1 390
 ACARS DATA
DATE IASGSALTITUDEFUEL CONSUMED OATFLIGHT STATUS
2020-04-21 17:51:37001917BOARDING
2020-04-21 17:52:37001917BOARDING
2020-04-21 17:53:37801917BOARDING
2020-04-21 17:54:37901937BOARDING
2020-04-21 17:55:371001977BOARDING
2020-04-21 17:56:379019177BOARDING
2020-04-21 17:57:379019267BOARDING
2020-04-21 17:58:377019347BOARDING
2020-04-21 17:59:3715119437BOARDING
2020-04-21 18:00:37341719527TAXI TO THE RWY
2020-04-21 18:01:37301619587TAXI TO THE RWY
2020-04-21 18:02:37493419627TAXI TO THE RWY
2020-04-21 18:03:37362319807TAXI TO THE RWY
2020-04-21 18:04:370019897TAXI TO THE RWY
2020-04-21 18:05:37891016681046TAXI TO THE RWY
2020-04-21 18:06:3715816112341285CLIMBING
2020-04-21 18:07:3720721812811455CRUISE
2020-04-21 18:08:3721322513011605CRUISE
2020-04-21 18:09:3721723012161755DESCEND
2020-04-21 18:10:372262388021905DESCEND
2020-04-21 18:11:372182297382066DESCEND
2020-04-21 18:12:372172287172226CRUISE
2020-04-21 18:13:372152277172386CRUISE
2020-04-21 18:14:372152267192536CRUISE
2020-04-21 18:15:372152227172696CRUISE
2020-04-21 18:16:372102178912855CLIMBING
2020-04-21 18:17:372182239122975CLIMBING
2020-04-21 18:18:372172249913165CRUISE
2020-04-21 18:19:372172259833285CRUISE
2020-04-21 18:20:3721522810163485CRUISE
2020-04-21 18:21:3721622910003645CLIMBING
2020-04-21 18:22:372042198483775DESCEND
2020-04-21 18:23:372012158923905DESCEND
2020-04-21 18:24:3718319610844025CLIMBING
2020-04-21 18:25:3717619011074155CRUISE
2020-04-21 18:26:3716017310094215CRUISE
2020-04-21 18:27:371371509704365DESCEND
2020-04-21 18:28:371281398144475CRUISE
2020-04-21 18:29:371201238344585CRUISE
2020-04-21 18:30:37103909834706CLIMBING
2020-04-21 18:31:371049415654846DESCEND
2020-04-21 18:32:376157894957LANDED
2020-04-21 18:33:3742895007TAXI TO THE GATE
2020-04-21 18:34:37228895137TAXI TO THE GATE
2020-04-21 18:35:3720895227TAXI TO THE GATE